Terminal Aerodrome Forecast
Issued by NWS

Home | Current Version | Previous Version | Text Only | Print | Product List | Glossary Off
Versions: 1 2 3 4 5 6 7 8 9 10 11 12 13 14 15 16 17

000
FTUS43 KMPX 022342
TAFRWF
TAF
KRWF 022342Z 0300/0324 16015G23KT P6SM OVC080
     FM030700 16014KT 3SM -SN OVC030
     FM030900 16009KT 1 1/2SM -SN OVC008
     FM031300 25013KT 1/2SM SN VV005
     FM031600 33021G31KT 3/4SM -SN BLSN OVC005
     FM031900 32025G34KT 3/4SM BLSN FEW007 BKN020=

USA.gov is the U.S. government's official web portal to all federal, state and local government web resources and services.